createdAt,value
2023-05-14T00:01:01.267Z,64.87
2023-05-14T00:03:27.970Z,65.03
2023-05-14T00:05:54.604Z,64.92
2023-05-14T00:08:21.062Z,64.99
2023-05-14T00:10:47.566Z,64.50
2023-05-14T00:13:14.084Z,64.76
2023-05-14T00:15:40.860Z,64.78
2023-05-14T00:18:07.780Z,64.91
2023-05-14T00:20:34.279Z,64.83
2023-05-14T00:23:01.095Z,64.73
2023-05-14T00:25:27.764Z,64.98
2023-05-14T00:27:54.507Z,64.86
2023-05-14T00:30:21.129Z,64.81
2023-05-14T00:32:47.707Z,64.55
2023-05-14T00:35:14.344Z,64.28
2023-05-14T00:37:40.905Z,64.88
2023-05-14T00:40:08.692Z,65.32
2023-05-14T00:42:35.174Z,65.49
2023-05-14T00:45:01.810Z,65.60
2023-05-14T00:47:28.663Z,65.73
2023-05-14T00:49:55.230Z,65.52
2023-05-14T00:52:22.208Z,65.26
2023-05-14T00:54:49.504Z,65.29
2023-05-14T00:57:16.146Z,65.33
2023-05-14T00:59:42.758Z,65.12
2023-05-14T01:02:09.589Z,65.46
2023-05-14T01:04:38.018Z,64.78
2023-05-14T01:07:17.896Z,65.06
2023-05-14T01:10:09.579Z,65.21
2023-05-14T01:12:44.912Z,65.33
2023-05-14T01:15:13.073Z,65.04
2023-05-14T01:17:47.526Z,65.16
2023-05-14T01:20:15.659Z,65.66
2023-05-14T01:22:42.631Z,64.90
2023-05-14T01:25:09.831Z,65.40
2023-05-14T01:27:52.562Z,65.65
2023-05-14T01:30:29.894Z,65.58
2023-05-14T01:33:00.617Z,65.88
2023-05-14T01:35:29.461Z,66.06
2023-05-14T01:37:57.803Z,66.30
2023-05-14T01:40:25.607Z,66.64
2023-05-14T01:42:53.139Z,66.17
2023-05-14T01:45:25.637Z,66.63
2023-05-14T01:47:53.076Z,66.68
2023-05-14T01:50:20.038Z,66.70
2023-05-14T01:52:48.365Z,66.75
2023-05-14T01:55:15.950Z,67.02
2023-05-14T01:57:42.404Z,67.34
2023-05-14T02:00:09.420Z,67.24
2023-05-14T02:02:36.204Z,67.02
2023-05-14T02:05:04.332Z,67.46
2023-05-14T02:07:33.046Z,67.50
2023-05-14T02:09:59.602Z,67.60
2023-05-14T02:12:26.400Z,68.13
2023-05-14T02:14:52.910Z,67.92
2023-05-14T02:17:20.263Z,68.29
2023-05-14T02:19:47.173Z,68.17
2023-05-14T02:22:13.888Z,68.20
2023-05-14T02:24:41.392Z,68.58
2023-05-14T02:27:08.024Z,68.63
2023-05-14T02:29:34.693Z,68.73
2023-05-14T02:32:01.216Z,68.61
2023-05-14T02:34:27.735Z,68.78
2023-05-14T02:36:54.235Z,69.14
2023-05-14T02:39:22.986Z,68.98
2023-05-14T02:41:49.393Z,69.14
2023-05-14T02:44:15.987Z,69.15
2023-05-14T02:46:43.220Z,68.95
2023-05-14T02:49:10.053Z,69.05
2023-05-14T02:51:36.852Z,69.29
2023-05-14T02:54:03.427Z,69.25
2023-05-14T02:56:29.898Z,69.42
2023-05-14T02:58:56.348Z,69.06
2023-05-14T03:01:23.410Z,69.02
2023-05-14T03:03:54.949Z,69.26
2023-05-14T03:09:04.937Z,69.56
2023-05-14T03:11:33.608Z,69.83
2023-05-14T03:14:00.947Z,69.94
2023-05-14T03:16:33.182Z,69.93
2023-05-14T03:19:02.804Z,69.78
2023-05-14T03:21:29.622Z,70.06
2023-05-14T03:23:59.761Z,69.81
2023-05-14T03:26:26.378Z,69.64
2023-05-14T03:28:53.018Z,69.71
2023-05-14T03:31:19.782Z,69.32
2023-05-14T03:33:46.810Z,69.26
2023-05-14T03:36:13.340Z,68.80
2023-05-14T03:38:39.979Z,68.74
2023-05-14T03:41:06.535Z,69.37
2023-05-14T03:43:33.011Z,69.82
2023-05-14T03:45:59.960Z,70.22
2023-05-14T03:48:26.545Z,69.95
2023-05-14T03:50:53.115Z,69.88
2023-05-14T03:53:19.905Z,69.96
2023-05-14T03:55:46.507Z,69.61
2023-05-14T03:58:14.446Z,69.77
2023-05-14T04:00:42.431Z,69.31
2023-05-14T04:03:10.971Z,69.49
2023-05-14T04:05:38.135Z,69.46
2023-05-14T04:08:05.025Z,69.27
2023-05-14T04:10:32.372Z,69.42
2023-05-14T04:12:58.913Z,69.17
2023-05-14T04:15:25.445Z,68.93
2023-05-14T04:17:52.007Z,68.92
2023-05-14T04:20:18.622Z,67.82
2023-05-14T04:22:45.920Z,67.01
2023-05-14T04:25:12.839Z,67.90
2023-05-14T04:27:39.936Z,67.26
2023-05-14T04:30:08.399Z,67.52
2023-05-14T04:32:34.884Z,67.71
2023-05-14T04:35:01.737Z,67.72
2023-05-14T04:37:28.293Z,67.99
2023-05-14T04:39:55.703Z,68.36
2023-05-14T04:42:22.223Z,68.53
2023-05-14T04:44:48.968Z,68.68
2023-05-14T04:47:15.494Z,68.33
2023-05-14T04:49:42.823Z,67.87
2023-05-14T04:52:09.376Z,68.32
2023-05-14T04:54:36.230Z,68.38
2023-05-14T04:57:03.562Z,67.77
2023-05-14T04:59:31.455Z,68.14
2023-05-14T05:01:58.297Z,67.63
2023-05-14T05:04:25.138Z,68.42
2023-05-14T05:06:51.920Z,68.00
2023-05-14T05:09:19.015Z,68.12
2023-05-14T05:11:45.528Z,67.64
2023-05-14T05:14:12.061Z,67.40
2023-05-14T05:16:38.532Z,67.61
2023-05-14T05:19:05.237Z,66.04
2023-05-14T05:21:31.815Z,65.98
2023-05-14T05:23:58.304Z,65.97
2023-05-14T05:26:26.857Z,65.41
2023-05-14T05:28:53.825Z,65.42
2023-05-14T05:31:20.629Z,64.77
2023-05-14T05:33:47.229Z,64.63
2023-05-14T05:36:13.802Z,64.96
2023-05-14T05:38:40.341Z,64.41
2023-05-14T05:41:07.548Z,65.01
2023-05-14T05:43:34.177Z,64.87
2023-05-14T05:46:01.940Z,65.62
2023-05-14T05:48:28.422Z,64.84
2023-05-14T05:50:55.112Z,63.63
2023-05-14T05:53:21.723Z,63.50
2023-05-14T05:55:48.196Z,63.22
2023-05-14T05:58:17.238Z,63.41
2023-05-14T06:00:44.234Z,63.67
2023-05-14T06:03:11.838Z,62.45
2023-05-14T06:05:38.427Z,61.16
2023-05-14T06:08:05.534Z,61.22
2023-05-14T06:10:32.152Z,61.00
2023-05-14T06:12:58.648Z,60.19
2023-05-14T06:15:25.252Z,59.71
2023-05-14T06:17:51.885Z,58.89
2023-05-14T06:20:19.149Z,59.51
2023-05-14T06:22:45.673Z,59.03
2023-05-14T06:25:12.279Z,58.89
2023-05-14T06:27:38.806Z,59.09
2023-05-14T06:30:07.284Z,58.77
2023-05-14T06:32:33.783Z,58.73
2023-05-14T06:35:00.648Z,58.51
2023-05-14T06:37:27.369Z,57.52
2023-05-14T06:39:54.730Z,56.66
2023-05-14T06:42:22.860Z,55.94
2023-05-14T06:44:49.423Z,55.22
2023-05-14T06:47:15.922Z,54.29
2023-05-14T06:49:42.534Z,53.86
2023-05-14T06:52:09.407Z,52.60
2023-05-14T06:54:36.219Z,51.54
2023-05-14T06:57:03.384Z,50.80
2023-05-14T06:59:29.957Z,50.61
2023-05-14T07:01:56.513Z,50.15
2023-05-14T07:04:23.154Z,49.16
2023-05-14T07:06:49.833Z,48.50
2023-05-14T07:09:16.615Z,48.05
2023-05-14T07:11:43.429Z,46.73
2023-05-14T07:14:09.973Z,47.54
2023-05-14T07:16:37.000Z,48.17
2023-05-14T07:19:03.736Z,46.74
2023-05-14T07:21:30.436Z,45.79
2023-05-14T07:23:57.146Z,46.10
2023-05-14T07:26:24.537Z,44.76
2023-05-14T07:28:51.107Z,44.62
2023-05-14T07:31:17.874Z,44.29
2023-05-14T07:33:44.481Z,44.28
2023-05-14T07:36:11.227Z,42.32
2023-05-14T07:38:37.836Z,42.94
2023-05-14T07:41:04.674Z,42.01
2023-05-14T07:43:31.627Z,41.67
2023-05-14T07:46:00.276Z,41.74
2023-05-14T07:48:26.797Z,41.63
2023-05-14T07:50:53.830Z,41.64
2023-05-14T07:53:22.039Z,42.03
2023-05-14T07:55:49.495Z,41.69
2023-05-14T07:58:16.613Z,41.27
2023-05-14T08:00:43.226Z,40.97
2023-05-14T08:03:09.914Z,40.85
2023-05-14T08:05:36.673Z,40.59
2023-05-14T08:08:03.194Z,40.37
2023-05-14T08:10:29.882Z,40.80
2023-05-14T08:12:56.522Z,41.01
2023-05-14T08:15:24.555Z,41.40
2023-05-14T08:18:03.450Z,39.47
2023-05-14T08:20:31.178Z,40.21
2023-05-14T08:23:00.663Z,41.16
2023-05-14T08:25:27.176Z,41.45
2023-05-14T08:27:54.258Z,40.82
2023-05-14T08:30:22.270Z,40.22
2023-05-14T08:32:49.001Z,39.06
2023-05-14T08:35:16.203Z,38.82
2023-05-14T08:37:42.841Z,37.92
2023-05-14T08:40:10.157Z,38.41
2023-05-14T08:42:40.486Z,38.51
2023-05-14T08:45:14.036Z,38.09
2023-05-14T08:47:40.720Z,38.25
2023-05-14T08:50:08.592Z,39.23
2023-05-14T08:52:35.631Z,37.81
2023-05-14T08:55:06.440Z,39.66
2023-05-14T08:57:34.620Z,39.05
2023-05-14T09:00:07.240Z,37.10
2023-05-14T09:02:34.278Z,38.16
2023-05-14T09:05:04.244Z,37.05
2023-05-14T09:07:31.452Z,37.23
2023-05-14T09:09:58.772Z,35.62
2023-05-14T09:12:26.178Z,33.95
2023-05-14T09:14:52.636Z,34.75
2023-05-14T09:17:19.897Z,33.91
2023-05-14T09:19:49.061Z,34.34
2023-05-14T09:22:17.769Z,34.96
2023-05-14T09:24:44.944Z,35.43
2023-05-14T09:27:21.638Z,36.56
2023-05-14T09:29:48.496Z,38.63
2023-05-14T09:32:15.067Z,39.31
2023-05-14T09:34:42.242Z,39.37
2023-05-14T09:37:10.124Z,40.98
2023-05-14T09:39:39.033Z,41.64
2023-05-14T09:42:06.174Z,40.90
2023-05-14T09:44:36.228Z,41.44
2023-05-14T09:47:02.906Z,39.80
2023-05-14T09:49:29.478Z,38.68
2023-05-14T09:51:57.930Z,38.29
2023-05-14T09:54:27.094Z,36.22
2023-05-14T09:56:55.638Z,34.45
2023-05-14T09:59:22.469Z,32.30
2023-05-14T10:01:49.961Z,33.51
2023-05-14T10:04:18.254Z,33.31
2023-05-14T10:06:49.650Z,34.78
2023-05-14T10:09:18.777Z,35.33
2023-05-14T10:11:52.784Z,36.22
2023-05-14T10:14:29.391Z,34.21
2023-05-14T10:17:00.214Z,35.92
2023-05-14T10:19:28.336Z,35.91
2023-05-14T10:22:05.557Z,37.41
2023-05-14T10:24:35.660Z,38.91
2023-05-14T10:27:02.697Z,39.15
2023-05-14T10:29:37.816Z,40.50
2023-05-14T10:32:06.901Z,41.14
2023-05-14T10:34:41.547Z,42.47
2023-05-14T10:37:09.536Z,43.11
2023-05-14T10:39:48.347Z,42.39
2023-05-14T10:42:23.480Z,43.26
2023-05-14T10:44:58.926Z,43.53
2023-05-14T10:47:27.005Z,43.11
2023-05-14T10:49:59.129Z,42.93
2023-05-14T10:52:28.008Z,43.32
2023-05-14T10:55:03.782Z,42.93
2023-05-14T10:57:32.207Z,43.36
2023-05-14T11:00:01.924Z,42.78
2023-05-14T11:02:39.621Z,43.10
2023-05-14T11:05:19.502Z,43.38
2023-05-14T11:07:50.256Z,43.22
2023-05-14T11:10:18.519Z,44.36
2023-05-14T11:12:47.735Z,43.68
2023-05-14T11:15:16.766Z,44.79
2023-05-14T11:17:45.029Z,43.54
2023-05-14T11:20:12.086Z,44.45
2023-05-14T11:22:42.025Z,44.56
2023-05-14T11:25:10.023Z,43.25
2023-05-14T11:27:40.843Z,42.56
2023-05-14T11:30:19.475Z,42.70
2023-05-14T11:32:47.852Z,42.12
2023-05-14T11:35:15.409Z,42.86
2023-05-14T11:37:42.817Z,42.59
2023-05-14T11:40:16.648Z,42.45
2023-05-14T11:42:43.517Z,42.00
2023-05-14T11:45:14.252Z,42.60
2023-05-14T11:47:42.729Z,42.68
2023-05-14T11:50:09.911Z,42.32
2023-05-14T11:52:41.437Z,42.55
2023-05-14T11:55:14.817Z,42.44
2023-05-14T11:57:42.530Z,42.38
2023-05-14T12:00:16.645Z,42.89
2023-05-14T12:02:43.283Z,41.48
2023-05-14T12:05:12.987Z,40.92
2023-05-14T12:07:39.514Z,39.69
2023-05-14T12:10:06.634Z,40.20
2023-05-14T12:12:39.861Z,41.15
2023-05-14T12:15:13.829Z,40.31
2023-05-14T12:17:40.770Z,39.01
2023-05-14T12:20:10.584Z,39.57
2023-05-14T12:22:37.742Z,39.73
2023-05-14T12:25:04.708Z,39.04
2023-05-14T12:27:31.798Z,38.68
2023-05-14T12:30:09.223Z,38.92
2023-05-14T12:32:46.738Z,39.44
2023-05-14T12:35:13.344Z,40.71
2023-05-14T12:37:40.237Z,40.89
2023-05-14T12:40:09.770Z,40.58
2023-05-14T12:42:36.726Z,39.65
2023-05-14T12:45:07.580Z,39.21
2023-05-14T12:47:34.941Z,38.14
2023-05-14T12:50:01.866Z,38.55
2023-05-14T12:52:37.603Z,38.18
2023-05-14T12:55:07.073Z,40.22
2023-05-14T12:57:35.495Z,40.06
2023-05-14T13:00:06.926Z,41.82
2023-05-14T13:02:43.072Z,42.52
2023-05-14T13:05:13.608Z,43.02
2023-05-14T13:07:40.804Z,42.77
2023-05-14T13:10:08.135Z,44.01
2023-05-14T13:12:35.075Z,44.46
2023-05-14T13:15:01.639Z,42.80
2023-05-14T13:17:28.264Z,40.35
2023-05-14T13:19:54.876Z,41.82
2023-05-14T13:22:21.549Z,41.14
2023-05-14T13:24:48.270Z,41.12
2023-05-14T13:27:14.788Z,41.29
2023-05-14T13:29:41.473Z,41.96
2023-05-14T13:32:08.782Z,41.12
2023-05-14T13:34:35.278Z,41.45
2023-05-14T13:37:01.822Z,41.26
2023-05-14T13:39:28.376Z,40.88
2023-05-14T13:41:56.725Z,41.55
2023-05-14T13:44:23.405Z,41.07
2023-05-14T13:46:50.593Z,39.81
2023-05-14T13:49:17.699Z,40.39
2023-05-14T13:51:44.497Z,39.35
2023-05-14T13:54:11.476Z,39.90
2023-05-14T13:56:38.062Z,38.04
2023-05-14T13:59:04.764Z,37.36
2023-05-14T14:01:31.778Z,37.45
2023-05-14T14:03:58.590Z,38.28
2023-05-14T14:06:27.569Z,39.78
2023-05-14T14:08:54.570Z,39.84
2023-05-14T14:11:21.944Z,39.68
2023-05-14T14:13:48.468Z,40.43
2023-05-14T14:16:15.950Z,39.69
2023-05-14T14:18:43.365Z,39.23
2023-05-14T14:21:10.359Z,40.37
2023-05-14T14:23:37.249Z,38.76
2023-05-14T14:26:04.194Z,40.54
2023-05-14T14:28:31.587Z,39.37
2023-05-14T14:30:58.200Z,40.35
2023-05-14T14:33:25.219Z,40.81
2023-05-14T14:35:55.531Z,40.65
2023-05-14T14:38:37.566Z,41.73
2023-05-14T14:41:04.335Z,41.47
2023-05-14T14:43:32.140Z,41.89
2023-05-14T14:45:58.707Z,41.83
2023-05-14T14:48:37.281Z,42.47
2023-05-14T14:51:05.935Z,41.58
2023-05-14T14:53:33.788Z,41.09
2023-05-14T14:56:01.133Z,42.17
2023-05-14T14:58:29.115Z,41.14
2023-05-14T15:00:57.052Z,40.75
2023-05-14T15:03:24.917Z,42.70
2023-05-14T15:05:53.362Z,41.41
2023-05-14T15:08:20.853Z,41.11
2023-05-14T15:10:47.455Z,40.53
2023-05-14T15:13:14.163Z,40.26
2023-05-14T15:15:42.000Z,40.43
2023-05-14T15:18:08.723Z,39.91
2023-05-14T15:20:35.551Z,39.19
2023-05-14T15:23:02.780Z,40.53
2023-05-14T15:25:29.308Z,39.65
2023-05-14T15:27:55.824Z,40.46
2023-05-14T15:30:22.430Z,42.41
2023-05-14T15:32:49.630Z,40.95
2023-05-14T15:35:16.665Z,41.13
2023-05-14T15:37:44.837Z,41.16
2023-05-14T15:40:12.033Z,41.32
2023-05-14T15:42:42.079Z,42.49
2023-05-14T15:45:12.655Z,41.04
2023-05-14T15:47:39.661Z,41.38
2023-05-14T15:50:07.126Z,40.24
2023-05-14T15:52:34.469Z,41.29
2023-05-14T15:55:01.448Z,41.88
2023-05-14T15:57:28.042Z,42.04
2023-05-14T16:02:52.800Z,42.62
2023-05-14T16:05:19.466Z,42.27
2023-05-14T16:07:45.945Z,42.19
2023-05-14T16:10:12.647Z,43.24
2023-05-14T16:12:39.037Z,42.77
2023-05-14T16:15:07.118Z,43.49
2023-05-14T16:17:34.390Z,43.64
2023-05-14T16:20:01.164Z,43.73
2023-05-14T16:22:29.208Z,43.65
2023-05-14T16:24:55.929Z,43.93
2023-05-14T16:27:22.397Z,44.03
2023-05-14T16:29:48.786Z,43.79
2023-05-14T16:32:15.306Z,44.03
2023-05-14T16:34:41.829Z,44.32
2023-05-14T16:37:08.514Z,44.90
2023-05-14T16:39:35.650Z,45.15
2023-05-14T16:42:02.026Z,45.38
2023-05-14T16:44:28.391Z,45.37
2023-05-14T16:46:54.793Z,45.47
2023-05-14T16:49:24.391Z,45.16
2023-05-14T16:51:50.819Z,46.21
2023-05-14T16:54:17.309Z,46.48
2023-05-14T16:56:47.950Z,45.93
2023-05-14T16:59:15.825Z,45.52
2023-05-14T17:01:43.274Z,45.87
2023-05-14T17:04:10.439Z,46.93
2023-05-14T17:06:37.059Z,47.68
2023-05-14T17:09:03.717Z,47.71
2023-05-14T17:11:30.206Z,47.73
2023-05-14T17:13:56.726Z,47.85
2023-05-14T17:16:23.239Z,48.06
2023-05-14T17:18:49.658Z,47.84
2023-05-14T17:21:16.041Z,48.56
2023-05-14T17:23:42.463Z,48.89
2023-05-14T17:26:08.864Z,48.13
2023-05-14T17:28:35.417Z,47.75
2023-05-14T17:31:02.097Z,48.36
2023-05-14T17:33:28.583Z,48.57
2023-05-14T17:35:55.017Z,48.89
2023-05-14T17:38:21.431Z,48.61
2023-05-14T17:40:47.968Z,48.71
2023-05-14T17:43:14.352Z,48.82
2023-05-14T17:45:52.966Z,49.19
2023-05-14T17:48:20.647Z,50.16
2023-05-14T17:50:47.113Z,50.97
2023-05-14T17:53:13.745Z,51.96
2023-05-14T17:55:43.425Z,52.44
2023-05-14T17:58:11.562Z,52.95
2023-05-14T18:00:38.112Z,52.82
2023-05-14T18:03:04.789Z,53.47
2023-05-14T18:05:32.308Z,53.87
2023-05-14T18:07:58.763Z,54.21
2023-05-14T18:10:25.457Z,55.04
2023-05-14T18:12:52.036Z,55.32
2023-05-14T18:15:20.302Z,55.11
2023-05-14T18:17:47.076Z,56.24
2023-05-14T18:20:13.516Z,56.80
2023-05-14T18:22:39.979Z,57.04
2023-05-14T18:25:07.154Z,57.32
2023-05-14T18:27:34.184Z,58.04
2023-05-14T18:30:00.650Z,58.18
2023-05-14T18:32:29.555Z,58.61
2023-05-14T18:34:56.017Z,58.49
2023-05-14T18:37:22.463Z,58.54
2023-05-14T18:39:48.895Z,58.60
2023-05-14T18:42:16.576Z,58.84
2023-05-14T18:44:44.658Z,58.84
2023-05-14T18:47:11.270Z,58.76
2023-05-14T18:49:42.186Z,58.63
2023-05-14T18:52:08.628Z,58.87
2023-05-14T18:54:35.288Z,58.79
2023-05-14T18:57:01.789Z,58.21
2023-05-14T18:59:28.220Z,59.07
2023-05-14T19:01:54.763Z,59.22
2023-05-14T19:04:21.377Z,59.27
2023-05-14T19:06:47.836Z,59.90
2023-05-14T19:09:15.642Z,60.20
2023-05-14T19:11:42.286Z,60.02
2023-05-14T19:14:09.327Z,59.56
2023-05-14T19:16:35.797Z,59.66
2023-05-14T19:19:03.183Z,60.22
2023-05-14T19:21:29.662Z,60.40
2023-05-14T19:23:56.180Z,59.89
2023-05-14T19:26:22.626Z,59.83
2023-05-14T19:28:49.109Z,60.18
2023-05-14T19:31:15.904Z,60.69
2023-05-14T19:33:42.335Z,61.03
2023-05-14T19:36:08.770Z,60.82
2023-05-14T19:38:35.630Z,60.86
2023-05-14T19:41:02.024Z,59.98
2023-05-14T19:43:28.460Z,59.38
2023-05-14T19:45:54.948Z,59.42
2023-05-14T19:48:21.434Z,59.97
2023-05-14T19:50:48.432Z,59.93
2023-05-14T19:53:14.886Z,60.00
2023-05-14T19:55:42.062Z,60.67
2023-05-14T19:58:08.804Z,60.97
2023-05-14T20:00:36.840Z,61.31
2023-05-14T20:03:04.266Z,61.88
2023-05-14T20:05:30.830Z,62.93
2023-05-14T20:07:57.286Z,63.06
2023-05-14T20:10:24.207Z,63.03
2023-05-14T20:12:50.818Z,63.36
2023-05-14T20:15:17.209Z,63.82
2023-05-14T20:17:43.679Z,63.91
2023-05-14T20:20:10.986Z,63.66
2023-05-14T20:22:38.228Z,64.08
2023-05-14T20:25:05.038Z,64.52
2023-05-14T20:27:31.967Z,64.49
2023-05-14T20:29:58.370Z,64.75
2023-05-14T20:32:25.047Z,65.00
2023-05-14T20:34:51.873Z,65.12
2023-05-14T20:37:19.749Z,65.31
2023-05-14T20:39:46.734Z,65.57
2023-05-14T20:42:13.232Z,65.80
2023-05-14T20:44:39.918Z,65.92
2023-05-14T20:47:06.492Z,65.83
2023-05-14T20:49:32.878Z,66.03
2023-05-14T20:51:59.300Z,65.69
2023-05-14T20:54:25.791Z,65.99
2023-05-14T20:56:52.224Z,65.62
2023-05-14T20:59:18.608Z,65.69
2023-05-14T21:01:45.062Z,66.28
2023-05-14T21:04:11.768Z,66.32
2023-05-14T21:06:38.350Z,66.29
2023-05-14T21:09:04.745Z,66.41
2023-05-14T21:11:31.233Z,66.03
2023-05-14T21:13:57.675Z,66.89
2023-05-14T21:16:24.209Z,66.91
2023-05-14T21:18:50.692Z,66.89
2023-05-14T21:21:17.183Z,66.42
2023-05-14T21:23:43.564Z,65.90
2023-05-14T21:26:10.149Z,65.84
2023-05-14T21:28:36.824Z,65.74
2023-05-14T21:31:03.248Z,65.24
2023-05-14T21:33:29.626Z,65.95
2023-05-14T21:35:56.279Z,66.15
2023-05-14T21:38:22.840Z,66.38
2023-05-14T21:40:49.258Z,66.64
2023-05-14T21:43:15.732Z,66.65
2023-05-14T21:45:43.868Z,66.41
2023-05-14T21:48:10.751Z,66.92
2023-05-14T21:50:37.375Z,65.77
2023-05-14T21:53:03.855Z,66.00
2023-05-14T21:55:30.395Z,66.62
2023-05-14T21:57:56.965Z,66.60
2023-05-14T22:00:24.058Z,66.46
2023-05-14T22:02:52.582Z,67.39
2023-05-14T22:05:19.755Z,67.64
2023-05-14T22:07:46.415Z,67.36
2023-05-14T22:10:14.348Z,66.82
2023-05-14T22:12:42.190Z,66.39
2023-05-14T22:15:09.728Z,66.34
2023-05-14T22:17:36.400Z,65.81
2023-05-14T22:20:05.552Z,66.35
2023-05-14T22:22:32.821Z,67.14
2023-05-14T22:25:00.197Z,66.16
2023-05-14T22:27:26.624Z,66.76
2023-05-14T22:29:55.083Z,66.31
2023-05-14T22:32:21.706Z,66.68
2023-05-14T22:34:48.142Z,66.30
2023-05-14T22:37:14.622Z,66.93
2023-05-14T22:39:41.363Z,66.60
2023-05-14T22:42:08.023Z,66.82
2023-05-14T22:44:36.548Z,66.96
2023-05-14T22:47:05.155Z,68.46
2023-05-14T22:49:31.810Z,69.21
2023-05-14T22:51:58.294Z,67.87
2023-05-14T22:54:24.699Z,68.04
2023-05-14T22:56:51.514Z,69.75
2023-05-14T22:59:17.974Z,69.85
2023-05-14T23:01:44.475Z,70.90
2023-05-14T23:04:11.068Z,71.05
2023-05-14T23:06:37.497Z,71.23
2023-05-14T23:09:04.008Z,71.20
2023-05-14T23:11:30.412Z,70.65
2023-05-14T23:13:56.974Z,70.14
2023-05-14T23:16:23.504Z,70.99
2023-05-14T23:18:50.081Z,71.29
2023-05-14T23:21:16.739Z,70.68
2023-05-14T23:23:43.230Z,70.63
2023-05-14T23:26:09.688Z,69.75
2023-05-14T23:28:36.176Z,69.96
2023-05-14T23:31:02.618Z,69.89
2023-05-14T23:33:29.068Z,69.86
2023-05-14T23:35:55.572Z,69.48
2023-05-14T23:38:22.349Z,68.81
2023-05-14T23:40:49.293Z,69.77
2023-05-14T23:43:15.830Z,69.70
2023-05-14T23:45:42.329Z,69.71
2023-05-14T23:48:08.842Z,69.51
2023-05-14T23:50:35.366Z,68.72
2023-05-14T23:53:01.797Z,67.97
2023-05-14T23:55:28.313Z,68.76
2023-05-14T23:57:54.746Z,68.44
